Time;durP1;ratioP1;P1;durP2;ratioP2;P2;SDS_P1;SDS_P2;PMS_P1;PMS_P2;Temp;Humidity;BMP_temperature;BMP_pressure;BME280_temperature;BME280_humidity;BME280_pressure;Samples;Min_cycle;Max_cycle;Signal;HPM_P1;HPM_P2
2022/05/13 00:00:24;;;;;;;;;;;15.10;60.80;;;;;;10247809;28;84280;-54
2022/05/13 00:05:25;;;;;;;;;;;15.10;1.00;;;;;;10248250;28;84985;-55
2022/05/13 00:10:25;;;;;;;;;;;15.00;1.00;;;;;;10248842;28;84727;-54
2022/05/13 00:15:26;;;;;;;;;;;15.00;1.00;;;;;;10248571;28;84273;-55
2022/05/13 00:20:27;;;;;;;;;;;15.00;1.00;;;;;;10248134;28;84893;-54
2022/05/13 00:25:30;;;;;;;;;;;15.00;1.00;;;;;;10248186;28;84964;-56
2022/05/13 00:30:32;;;;;;;;;;;14.90;1.00;;;;;;10230578;28;84068;-57
2022/05/13 00:35:32;;;;;;;;;;;14.80;1.00;;;;;;10247449;28;84166;-55
2022/05/13 00:40:33;;;;;;;;;;;14.60;1.00;;;;;;10247881;28;84246;-55
2022/05/13 00:45:35;;;;;;;;;;;14.50;1.00;;;;;;10247609;28;84920;-56
2022/05/13 00:50:37;;;;;;;;;;;14.40;1.00;;;;;;10247319;28;84186;-55
2022/05/13 00:55:39;;;;;;;;;;;14.30;99.90;;;;;;10229430;28;86016;-54
2022/05/13 01:00:41;;;;;;;;;;;14.20;99.90;;;;;;10247783;28;84086;-55
2022/05/13 01:05:43;;;;;;;;;;;14.00;99.90;;;;;;10248631;28;84083;-57
2022/05/13 01:10:44;;;;;;;;;;;13.90;1.00;;;;;;10248576;28;84112;-53
2022/05/13 01:15:47;;;;;;;;;;;13.70;1.00;;;;;;10246215;28;84137;-55
2022/05/13 01:20:50;;;;;;;;;;;13.50;1.00;;;;;;10247106;28;84933;-53
2022/05/13 01:25:52;;;;;;;;;;;13.50;1.00;;;;;;10245667;28;84283;-57
2022/05/13 01:30:56;;;;;;;;;;;13.30;1.00;;;;;;10246383;28;84899;-55
2022/05/13 01:35:58;;;;;;;;;;;13.00;1.00;;;;;;10245784;28;84101;-51
2022/05/13 01:40:59;;;;;;;;;;;13.00;1.00;;;;;;10245959;28;84100;-55
2022/05/13 01:45:59;;;;;;;;;;;12.80;1.00;;;;;;10245631;28;84688;-54
2022/05/13 01:51:00;;;;;;;;;;;12.70;1.00;;;;;;10245334;28;84207;-55
2022/05/13 01:56:01;;;;;;;;;;;12.60;1.00;;;;;;10245292;28;84032;-53
2022/05/13 02:01:04;;;;;;;;;;;12.60;1.00;;;;;;10228319;28;84871;-53
2022/05/13 02:06:05;;;;;;;;;;;12.60;1.00;;;;;;10245347;28;87722;-55
2022/05/13 02:11:06;;;;;;;;;;;12.50;1.00;;;;;;10245395;28;84127;-51
2022/05/13 02:16:06;;;;;;;;;;;12.40;1.00;;;;;;10244849;28;84195;-52
2022/05/13 02:21:08;;;;;;;;;;;12.40;1.00;;;;;;10245188;28;84562;-54
2022/05/13 02:26:11;;;;;;;;;;;12.30;1.00;;;;;;10244611;28;84380;-56
2022/05/13 02:31:12;;;;;;;;;;;12.30;1.00;;;;;;10244920;28;84278;-54
2022/05/13 02:36:13;;;;;;;;;;;12.20;1.00;;;;;;10219019;28;85922;-54
2022/05/13 02:41:14;;;;;;;;;;;12.10;1.00;;;;;;10249425;28;84624;-54
2022/05/13 02:46:16;;;;;;;;;;;12.10;1.00;;;;;;10251443;28;85295;-52
2022/05/13 02:51:17;;;;;;;;;;;12.10;1.00;;;;;;10249525;28;84650;-55
2022/05/13 02:56:18;;;;;;;;;;;12.00;1.00;;;;;;10250956;28;84749;-55
2022/05/13 03:01:19;;;;;;;;;;;11.90;1.00;;;;;;10252225;28;84101;-56
2022/05/13 03:06:20;;;;;;;;;;;11.80;1.00;;;;;;10251812;28;84933;-54
2022/05/13 03:11:20;;;;;;;;;;;11.70;1.00;;;;;;10231659;28;86204;-56
2022/05/13 03:16:23;;;;;;;;;;;11.70;1.00;;;;;;10245131;28;84712;-53
2022/05/13 03:21:24;;;;;;;;;;;11.60;1.00;;;;;;10245272;28;85779;-53
2022/05/13 03:26:25;;;;;;;;;;;11.50;1.00;;;;;;10224962;28;84804;-57
2022/05/13 03:31:25;;;;;;;;;;;11.40;1.00;;;;;;10227778;28;84835;-53
2022/05/13 03:36:26;;;;;;;;;;;11.40;1.00;;;;;;10245547;28;85175;-56
2022/05/13 03:41:27;;;;;;;;;;;11.40;1.00;;;;;;10249206;28;84844;-56
2022/05/13 03:46:27;;;;;;;;;;;11.30;1.00;;;;;;10250031;28;84946;-49
2022/05/13 03:51:28;;;;;;;;;;;11.30;1.00;;;;;;10242118;28;84892;-53
2022/05/13 03:56:29;;;;;;;;;;;11.30;1.00;;;;;;10249377;28;85031;-55
2022/05/13 04:01:29;;;;;;;;;;;11.20;1.00;;;;;;10229257;28;84202;-56
2022/05/13 04:17:08;;;;;;;;;;;11.40;1.00;;;;;;10264741;22;84211;-45
2022/05/13 04:22:10;;;;;;;;;;;11.40;1.00;;;;;;10253648;28;85074;-48
2022/05/13 04:27:10;;;;;;;;;;;11.40;1.00;;;;;;10238884;28;86057;-53
2022/05/13 04:32:11;;;;;;;;;;;11.40;1.00;;;;;;10247198;28;84031;-53
2022/05/13 04:37:11;;;;;;;;;;;11.40;1.00;;;;;;10247591;28;84703;-48
2022/05/13 04:52:50;;;;;;;;;;;11.50;1.00;;;;;;10245517;28;84944;-49
2022/05/13 04:57:51;;;;;;;;;;;11.60;1.00;;;;;;10247127;28;85306;-48
2022/05/13 05:02:52;;;;;;;;;;;11.70;1.00;;;;;;10232567;28;84944;-47
2022/05/13 05:07:53;;;;;;;;;;;11.90;1.00;;;;;;10246900;28;84116;-46
2022/05/13 05:12:54;;;;;;;;;;;12.10;1.00;;;;;;10245402;28;84284;-50
2022/05/13 05:17:55;;;;;;;;;;;12.20;1.00;;;;;;10228184;28;86897;-48
2022/05/13 05:22:56;;;;;;;;;;;12.10;1.00;;;;;;10244672;28;84256;-47
2022/05/13 05:27:56;;;;;;;;;;;12.20;1.00;;;;;;10225714;28;85203;-50
2022/05/13 05:32:57;;;;;;;;;;;12.40;1.00;;;;;;10245882;28;84832;-48
2022/05/13 05:37:57;;;;;;;;;;;12.50;1.00;;;;;;10252498;28;84793;-52
2022/05/13 05:43:02;;;;;;;;;;;12.50;1.00;;;;;;10228344;28;84183;-52
2022/05/13 05:48:03;;;;;;;;;;;12.50;1.00;;;;;;10244063;28;84347;-49
2022/05/13 05:53:04;;;;;;;;;;;12.50;1.00;;;;;;10237876;28;87225;-48
2022/05/13 05:58:14;;;;;;;;;;;12.60;1.00;;;;;;10242186;28;85099;-48
2022/05/13 06:03:15;;;;;;;;;;;12.70;1.00;;;;;;10243969;28;84865;-52
2022/05/13 06:08:16;;;;;;;;;;;12.80;1.00;;;;;;10247248;28;84150;-48
2022/05/13 06:13:16;;;;;;;;;;;12.90;1.00;;;;;;10244567;28;84980;-46
2022/05/13 06:18:17;;;;;;;;;;;12.90;1.00;;;;;;10226913;28;85067;-49
2022/05/13 06:23:18;;;;;;;;;;;13.00;1.00;;;;;;10244201;28;84197;-52
2022/05/13 06:28:18;;;;;;;;;;;13.10;1.00;;;;;;10241412;28;84135;-53
2022/05/13 06:33:19;;;;;;;;;;;13.00;1.00;;;;;;10235697;28;84758;-51
2022/05/13 06:38:21;;;;;;;;;;;13.20;1.00;;;;;;10240056;28;87611;-54
2022/05/13 06:43:22;;;;;;;;;;;13.30;1.00;;;;;;10244412;28;84344;-54
2022/05/13 06:48:22;;;;;;;;;;;13.50;1.00;;;;;;10244043;28;84804;-52
2022/05/13 06:53:23;;;;;;;;;;;13.80;1.00;;;;;;10244582;28;84976;-52
2022/05/13 06:58:24;;;;;;;;;;;13.90;1.00;;;;;;10244160;28;84830;-50
2022/05/13 07:03:24;;;;;;;;;;;14.10;1.00;;;;;;10243926;28;84772;-54
2022/05/13 07:08:25;;;;;;;;;;;14.30;1.00;;;;;;10244322;28;84287;-51
2022/05/13 07:13:25;;;;;;;;;;;14.70;1.00;;;;;;10242958;28;84299;-54
2022/05/13 07:18:26;;;;;;;;;;;15.50;1.00;;;;;;10226671;28;84581;-51
2022/05/13 07:23:27;;;;;;;;;;;16.00;1.00;;;;;;10245042;28;84942;-57
2022/05/13 07:28:28;;;;;;;;;;;16.50;1.00;;;;;;10249943;28;85289;-56
2022/05/13 07:33:30;;;;;;;;;;;17.00;99.90;;;;;;10250073;28;85009;-55
2022/05/13 07:38:31;;;;;;;;;;;17.70;99.90;;;;;;10232563;28;84954;-53
2022/05/13 07:43:32;;;;;;;;;;;17.90;1.00;;;;;;10229715;28;87048;-55
2022/05/13 07:48:32;;;;;;;;;;;17.50;39.90;;;;;;10247840;28;85188;-56
2022/05/13 07:53:33;;;;;;;;;;;18.00;1.00;;;;;;10248098;28;84770;-49
2022/05/13 07:58:34;;;;;;;;;;;18.10;1.00;;;;;;10256220;28;84972;-57
2022/05/13 08:03:34;;;;;;;;;;;18.00;1.00;;;;;;10259235;28;84312;-53
2022/05/13 08:08:40;;;;;;;;;;;18.10;1.00;;;;;;10273040;28;86124;-56
2022/05/13 08:13:42;;;;;;;;;;;18.30;1.00;;;;;;10290833;28;83987;-56
2022/05/13 08:18:44;;;;;;;;;;;18.10;1.00;;;;;;10254518;28;84250;-58
2022/05/13 08:23:45;;;;;;;;;;;18.30;99.90;;;;;;10264353;28;84856;-55
2022/05/13 08:28:45;;;;;;;;;;;18.20;99.90;;;;;;10246653;28;84555;-53
2022/05/13 08:33:46;;;;;;;;;;;18.20;99.90;;;;;;10245792;28;84168;-51
2022/05/13 08:38:48;;;;;;;;;;;17.90;99.90;;;;;;10247801;28;84891;-49
2022/05/13 08:43:53;;;;;;;;;;;17.50;1.00;;;;;;10244946;28;84178;-50
2022/05/13 08:49:12;;;;;;;;;;;17.50;1.00;;;;;;10230200;28;84890;-48
2022/05/13 08:54:14;;;;;;;;;;;17.30;1.00;;;;;;10259870;28;84949;-52
2022/05/13 08:59:21;;;;;;;;;;;17.40;1.00;;;;;;10241697;28;84935;-57
2022/05/13 09:04:38;;;;;;;;;;;17.70;1.00;;;;;;10244785;28;84320;-54
2022/05/13 09:09:41;;;;;;;;;;;18.30;1.00;;;;;;10226249;28;84903;-53
2022/05/13 09:14:41;;;;;;;;;;;18.50;99.90;;;;;;10246228;28;85223;-54
2022/05/13 09:19:42;;;;;;;;;;;19.10;99.90;;;;;;10245292;28;84924;-52
2022/05/13 09:24:43;;;;;;;;;;;19.50;99.90;;;;;;10246528;28;84746;-53
2022/05/13 09:29:45;;;;;;;;;;;20.30;1.00;;;;;;10245009;28;84272;-47
2022/05/13 09:34:52;;;;;;;;;;;21.00;1.00;;;;;;10246095;28;84165;-56
2022/05/13 09:40:10;;;;;;;;;;;21.20;1.00;;;;;;10243579;28;84774;-53
2022/05/13 09:45:18;;;;;;;;;;;21.10;1.00;;;;;;10245672;28;84260;-52
2022/05/13 09:50:23;;;;;;;;;;;21.50;99.90;;;;;;10242826;28;84952;-53
2022/05/13 09:55:31;;;;;;;;;;;20.70;1.00;;;;;;10254982;28;85064;-54
2022/05/13 10:00:35;;;;;;;;;;;20.20;99.90;;;;;;10248922;28;85778;-48
2022/05/13 10:05:36;;;;;;;;;;;20.50;1.00;;;;;;10246243;28;84209;-49
2022/05/13 10:16:01;;;;;;;;;;;21.30;1.00;;;;;;10243987;28;84349;-50
2022/05/13 10:21:22;;;;;;;;;;;22.10;1.00;;;;;;10242984;28;85314;-60
2022/05/13 10:26:24;;;;;;;;;;;20.90;1.00;;;;;;10297705;22;84822;-55
2022/05/13 10:31:27;;;;;;;;;;;19.80;1.00;;;;;;10290804;28;84314;-55
2022/05/13 10:36:40;;;;;;;;;;;18.80;1.00;;;;;;10314719;28;84283;-56
2022/05/13 10:41:52;;;;;;;;;;;18.50;1.00;;;;;;10329042;28;84226;-54
2022/05/13 10:46:54;;;;;;;;;;;18.50;99.90;;;;;;10362996;28;84578;-55
2022/05/13 10:52:13;;;;;;;;;;;19.10;99.90;;;;;;10327194;28;84269;-54
2022/05/13 10:57:33;;;;;;;;;;;20.00;99.90;;;;;;10327832;28;85400;-55
2022/05/13 11:02:34;;;;;;;;;;;19.70;1.00;;;;;;10333123;28;84988;-55
2022/05/13 11:07:44;;;;;;;;;;;19.90;1.00;;;;;;10295037;28;84143;-57
2022/05/13 11:12:52;;;;;;;;;;;20.30;99.90;;;;;;10327356;28;84143;-57
2022/05/13 11:17:58;;;;;;;;;;;20.30;99.90;;;;;;10300276;28;84798;-55
2022/05/13 11:23:04;;;;;;;;;;;19.90;99.90;;;;;;10373835;28;84024;-50
2022/05/13 11:28:23;;;;;;;;;;;20.00;99.90;;;;;;10366711;28;84289;-51
2022/05/13 11:33:25;;;;;;;;;;;20.50;99.90;;;;;;10330872;28;85132;-55
2022/05/13 11:38:28;;;;;;;;;;;21.40;1.00;;;;;;10308748;28;84879;-54
2022/05/13 11:43:35;;;;;;;;;;;21.80;1.00;;;;;;10313451;28;84820;-58
2022/05/13 11:48:40;;;;;;;;;;;21.40;29.60;;;;;;10313315;28;85063;-53
2022/05/13 11:53:44;;;;;;;;;;;20.40;99.90;;;;;;10290489;28;84921;-53
2022/05/13 11:58:44;;;;;;;;;;;19.80;1.00;;;;;;10287302;28;85857;-51
2022/05/13 12:04:05;;;;;;;;;;;21.10;1.00;;;;;;10330365;28;84257;-49
2022/05/13 12:09:08;;;;;;;;;;;22.10;51.00;;;;;;10329237;28;85037;-50
2022/05/13 12:14:21;;;;;;;;;;;22.20;1.00;;;;;;10334556;28;84031;-62
2022/05/13 12:19:42;;;;;;;;;;;23.10;1.00;;;;;;10307430;28;86846;-61
2022/05/13 12:24:56;;;;;;;;;;;22.80;1.00;;;;;;10305266;28;85429;-61
2022/05/13 12:30:02;;;;;;;;;;;22.20;99.90;;;;;;10299250;28;84060;-59
2022/05/13 12:40:40;;;;;;;;;;;23.60;99.90;;;;;;10270856;28;86108;-50
2022/05/13 12:45:57;;;;;;;;;;;24.60;99.90;;;;;;10288384;28;84185;-50
2022/05/13 12:51:09;;;;;;;;;;;24.90;1.00;;;;;;10289369;28;84894;-54
2022/05/13 12:56:19;;;;;;;;;;;25.00;99.90;;;;;;10289322;28;84135;-54
2022/05/13 13:01:20;;;;;;;;;;;24.20;99.90;;;;;;10271929;28;85329;-55
2022/05/13 13:06:21;;;;;;;;;;;23.20;99.90;;;;;;10310062;28;85049;-51
2022/05/13 13:11:25;;;;;;;;;;;22.70;1.00;;;;;;10323424;28;84565;-53
2022/05/13 13:16:32;;;;;;;;;;;23.80;1.00;;;;;;10325410;28;85121;-54
2022/05/13 13:21:33;;;;;;;;;;;24.80;99.90;;;;;;10350234;28;84199;-52
2022/05/13 13:26:34;;;;;;;;;;;25.10;99.90;;;;;;10357875;28;84352;-52
2022/05/13 13:31:38;;;;;;;;;;;24.30;99.90;;;;;;10309003;28;84799;-52
2022/05/13 13:36:39;;;;;;;;;;;23.10;99.90;;;;;;10327279;28;84061;-52
2022/05/13 13:41:39;;;;;;;;;;;22.50;99.90;;;;;;10290777;28;84235;-52
2022/05/13 13:46:41;;;;;;;;;;;22.00;99.90;;;;;;10294851;28;84323;-54
2022/05/13 13:51:43;;;;;;;;;;;22.70;99.90;;;;;;10322934;28;84648;-58
2022/05/13 13:56:53;;;;;;;;;;;23.00;99.90;;;;;;10315291;28;86129;-55
2022/05/13 14:01:54;;;;;;;;;;;22.90;99.90;;;;;;10304390;28;84941;-53
2022/05/13 14:06:56;;;;;;;;;;;23.40;99.90;;;;;;10304703;28;84830;-56
2022/05/13 14:11:58;;;;;;;;;;;23.60;1.00;;;;;;10306071;28;85958;-57
2022/05/13 14:17:05;;;;;;;;;;;22.90;98.10;;;;;;10304212;28;84315;-55
2022/05/13 14:22:08;;;;;;;;;;;22.40;99.90;;;;;;10306951;28;84800;-56
2022/05/13 14:27:18;;;;;;;;;;;22.10;99.90;;;;;;10307022;28;84949;-56
2022/05/13 14:32:20;;;;;;;;;;;21.50;1.00;;;;;;10313120;28;84775;-57
2022/05/13 14:37:29;;;;;;;;;;;21.40;1.00;;;;;;10331348;28;84283;-56
2022/05/13 14:42:39;;;;;;;;;;;21.40;57.50;;;;;;10318278;28;84348;-55
2022/05/13 14:47:40;;;;;;;;;;;21.40;30.70;;;;;;10313440;28;84342;-59
2022/05/13 14:52:46;;;;;;;;;;;21.50;35.40;;;;;;10328820;28;84597;-58
2022/05/13 14:57:48;;;;;;;;;;;21.50;1.00;;;;;;10315049;28;85906;-52
2022/05/13 15:02:54;;;;;;;;;;;21.20;1.00;;;;;;10338573;28;84466;-58
2022/05/13 15:07:56;;;;;;;;;;;21.00;99.80;;;;;;10334420;28;84235;-56
2022/05/13 15:12:57;;;;;;;;;;;20.90;99.90;;;;;;10338616;28;84172;-57
2022/05/13 15:18:01;;;;;;;;;;;21.00;99.90;;;;;;10332264;28;84942;-59
2022/05/13 15:23:01;;;;;;;;;;;21.00;99.90;;;;;;10323156;28;84819;-58
2022/05/13 15:28:03;;;;;;;;;;;20.90;99.90;;;;;;10302540;28;84589;-55
2022/05/13 15:33:04;;;;;;;;;;;21.00;99.90;;;;;;10332096;28;85099;-56
2022/05/13 15:38:05;;;;;;;;;;;21.00;99.90;;;;;;10331319;28;84764;-57
2022/05/13 15:43:06;;;;;;;;;;;20.90;99.90;;;;;;10331437;28;84265;-57
2022/05/13 15:48:08;;;;;;;;;;;20.80;99.90;;;;;;10331779;28;84023;-56
2022/05/13 15:53:08;;;;;;;;;;;20.80;99.90;;;;;;10312276;28;87548;-56
2022/05/13 15:58:17;;;;;;;;;;;20.60;99.90;;;;;;10322980;28;84767;-50
2022/05/13 16:03:18;;;;;;;;;;;20.60;85.20;;;;;;10333107;28;84237;-53
2022/05/13 16:08:19;;;;;;;;;;;20.50;99.90;;;;;;10332984;28;84240;-51
2022/05/13 16:13:32;;;;;;;;;;;20.50;99.90;;;;;;10332154;28;84808;-52
2022/05/13 16:18:35;;;;;;;;;;;20.70;99.90;;;;;;10332467;28;84876;-50
2022/05/13 16:29:01;;;;;;;;;;;20.60;99.90;;;;;;10246619;28;84699;-58
2022/05/13 16:34:02;;;;;;;;;;;20.40;99.90;;;;;;10247705;28;84839;-55
2022/05/13 16:39:02;;;;;;;;;;;20.40;99.90;;;;;;10249594;28;84973;-54
2022/05/13 16:44:03;;;;;;;;;;;20.40;99.90;;;;;;10256395;28;85421;-58
2022/05/13 16:49:03;;;;;;;;;;;20.30;99.90;;;;;;10249999;28;85318;-58
2022/05/13 16:54:04;;;;;;;;;;;20.30;99.90;;;;;;10249336;28;84358;-56
2022/05/13 16:59:04;;;;;;;;;;;20.20;99.90;;;;;;10248525;28;84781;-57
2022/05/13 17:04:06;;;;;;;;;;;20.20;99.90;;;;;;10248591;28;85078;-61
2022/05/13 17:19:45;;;;;;;;;;;20.20;1.00;;;;;;10258712;28;85202;-59
2022/05/13 17:24:48;;;;;;;;;;;20.10;1.00;;;;;;10246006;28;84840;-62
2022/05/13 17:29:50;;;;;;;;;;;19.90;1.00;;;;;;10247062;28;84964;-61
2022/05/13 17:34:51;;;;;;;;;;;19.90;1.00;;;;;;10248639;28;84889;-60
2022/05/13 17:39:51;;;;;;;;;;;19.80;1.00;;;;;;10240669;28;84868;-58
2022/05/13 17:44:53;;;;;;;;;;;19.70;1.00;;;;;;10230368;28;84284;-58
2022/05/13 17:49:53;;;;;;;;;;;19.60;1.00;;;;;;10247626;28;84093;-60
2022/05/13 17:54:55;;;;;;;;;;;19.60;1.00;;;;;;10245162;28;85012;-59
2022/05/13 17:59:55;;;;;;;;;;;19.50;1.00;;;;;;10247315;28;85926;-60
2022/05/13 18:04:56;;;;;;;;;;;19.30;1.00;;;;;;10244621;28;86404;-61
2022/05/13 18:09:57;;;;;;;;;;;19.30;1.00;;;;;;10291719;28;84084;-62
2022/05/13 18:14:58;;;;;;;;;;;19.20;17.70;;;;;;10281216;28;85890;-57
2022/05/13 18:19:59;;;;;;;;;;;19.10;99.90;;;;;;10239501;28;85275;-60
2022/05/13 18:25:00;;;;;;;;;;;19.00;1.00;;;;;;10244052;28;84941;-61
2022/05/13 18:30:01;;;;;;;;;;;18.90;1.00;;;;;;10236981;28;85277;-58
2022/05/13 18:35:02;;;;;;;;;;;18.90;1.00;;;;;;10248570;28;84083;-60
2022/05/13 18:50:55;;;;;;;;;;;18.60;1.00;;;;;;10241864;28;84205;-60
2022/05/13 18:55:57;;;;;;;;;;;18.50;9.20;;;;;;10239511;28;85563;-55
2022/05/13 19:01:01;;;;;;;;;;;18.40;99.90;;;;;;10234667;28;87719;-59
2022/05/13 19:06:03;;;;;;;;;;;18.40;1.00;;;;;;10244169;28;84089;-59
2022/05/13 19:11:04;;;;;;;;;;;18.30;1.00;;;;;;10239436;28;86890;-57
2022/05/13 19:16:05;;;;;;;;;;;18.20;61.80;;;;;;10244178;28;84572;-60
2022/05/13 19:21:06;;;;;;;;;;;18.10;1.00;;;;;;10249290;28;84225;-56
2022/05/13 19:26:09;;;;;;;;;;;18.00;1.00;;;;;;10250651;28;84278;-61
2022/05/13 19:31:12;;;;;;;;;;;17.90;99.90;;;;;;10250538;28;84393;-58
2022/05/13 19:36:14;;;;;;;;;;;17.80;1.00;;;;;;10249796;28;84489;-60
2022/05/13 19:41:15;;;;;;;;;;;17.70;99.90;;;;;;10249367;28;84746;-59
2022/05/13 19:46:17;;;;;;;;;;;17.50;99.90;;;;;;10245810;28;84161;-60
2022/05/13 19:51:19;;;;;;;;;;;17.40;1.00;;;;;;10249959;28;84958;-59
2022/05/13 19:56:19;;;;;;;;;;;17.30;38.80;;;;;;10249731;28;84620;-62
2022/05/13 20:01:20;;;;;;;;;;;17.30;99.90;;;;;;10229872;28;86220;-62
2022/05/13 20:11:40;;;;;;;;;;;17.10;99.90;;;;;;10240966;28;84472;-64
2022/05/13 20:16:40;;;;;;;;;;;17.10;1.00;;;;;;10246673;28;84231;-64
2022/05/13 20:27:00;;;;;;;;;;;16.90;1.00;;;;;;10243707;28;85214;-63
2022/05/13 20:32:02;;;;;;;;;;;16.80;1.00;;;;;;10234202;28;84948;-63
2022/05/13 20:37:03;;;;;;;;;;;16.70;1.00;;;;;;10232735;28;86134;-64
2022/05/13 20:42:04;;;;;;;;;;;16.70;1.00;;;;;;10231167;28;87321;-63
2022/05/13 20:47:04;;;;;;;;;;;16.60;1.00;;;;;;10249204;28;84473;-64
2022/05/13 20:52:05;;;;;;;;;;;16.70;1.00;;;;;;10233690;28;84901;-63
2022/05/13 20:57:05;;;;;;;;;;;16.70;1.00;;;;;;10249053;28;84904;-64
2022/05/13 21:02:06;;;;;;;;;;;16.70;1.00;;;;;;10237543;28;84864;-62
2022/05/13 21:07:07;;;;;;;;;;;16.70;48.20;;;;;;10247252;28;84173;-64
2022/05/13 21:12:08;;;;;;;;;;;16.60;99.90;;;;;;10231740;28;84281;-64
2022/05/13 21:17:09;;;;;;;;;;;16.50;99.90;;;;;;10232679;28;84154;-63
2022/05/13 21:22:09;;;;;;;;;;;16.50;99.90;;;;;;10256399;28;84528;-64
2022/05/13 21:27:10;;;;;;;;;;;16.40;99.90;;;;;;10228795;28;84538;-63
2022/05/13 21:37:31;;;;;;;;;;;16.20;99.90;;;;;;10206476;28;85293;-64
2022/05/13 21:42:31;;;;;;;;;;;16.10;99.90;;;;;;10205985;28;85145;-63
2022/05/13 21:47:32;;;;;;;;;;;16.00;99.90;;;;;;10232043;28;85923;-64
2022/05/13 21:52:32;;;;;;;;;;;15.90;99.90;;;;;;10245235;28;84257;-63
2022/05/13 21:57:33;;;;;;;;;;;15.80;1.00;;;;;;10217282;28;84454;-64
2022/05/13 22:02:33;;;;;;;;;;;15.80;1.00;;;;;;10205820;28;84953;-63
2022/05/13 22:07:34;;;;;;;;;;;15.80;1.00;;;;;;10245277;28;84941;-63
2022/05/13 22:12:34;;;;;;;;;;;15.80;99.90;;;;;;10244904;28;84166;-64
2022/05/13 22:17:35;;;;;;;;;;;15.90;1.00;;;;;;10204857;28;84320;-61
2022/05/13 22:22:36;;;;;;;;;;;15.80;1.00;;;;;;10243750;28;84036;-62
2022/05/13 22:27:37;;;;;;;;;;;15.80;1.00;;;;;;10246965;22;84451;-51
2022/05/13 22:32:37;;;;;;;;;;;15.70;1.00;;;;;;10243834;28;84251;-50
2022/05/13 22:37:38;;;;;;;;;;;15.70;1.00;;;;;;10225940;28;85956;-48
2022/05/13 22:42:39;;;;;;;;;;;15.80;1.00;;;;;;10243811;28;84865;-54
2022/05/13 22:47:40;;;;;;;;;;;15.70;1.00;;;;;;10203761;28;84208;-52
2022/05/13 22:52:41;;;;;;;;;;;15.60;1.00;;;;;;10186289;28;86954;-48
2022/05/13 22:57:41;;;;;;;;;;;15.60;1.00;;;;;;10250674;28;84071;-50
2022/05/13 23:02:42;;;;;;;;;;;15.50;1.00;;;;;;10249229;28;84989;-50
2022/05/13 23:13:02;;;;;;;;;;;15.40;1.00;;;;;;10204920;28;84478;-49
2022/05/13 23:18:02;;;;;;;;;;;15.30;1.00;;;;;;10215130;28;84967;-52
2022/05/13 23:23:03;;;;;;;;;;;15.20;1.00;;;;;;10209589;28;84774;-54
2022/05/13 23:28:04;;;;;;;;;;;15.20;1.00;;;;;;10240939;28;85199;-54
2022/05/13 23:33:05;;;;;;;;;;;15.00;1.00;;;;;;10233385;28;84907;-54
2022/05/13 23:38:05;;;;;;;;;;;15.00;1.00;;;;;;10217836;28;84973;-52
2022/05/13 23:43:06;;;;;;;;;;;14.90;1.00;;;;;;10208834;28;84250;-49
2022/05/13 23:48:07;;;;;;;;;;;14.90;1.00;;;;;;10240621;28;84291;-52
2022/05/13 23:58:28;;;;;;;;;;;14.60;1.00;;;;;;10196609;28;86266;-53
